sensor_id;sensor_type;location;lat;lon;timestamp;P1;durP1;ratioP1;P2;durP2;ratioP2
60233;SDS011;49514;43.538;-5.708;2022-12-18T07:20:35;24.77;;;6.20;;
60233;SDS011;49514;43.538;-5.708;2022-12-18T07:23:03;33.28;;;6.32;;
60233;SDS011;49514;43.538;-5.708;2022-12-18T07:25:35;30.45;;;6.20;;
60233;SDS011;49514;43.538;-5.708;2022-12-18T07:28:02;24.52;;;7.03;;
60233;SDS011;49514;43.538;-5.708;2022-12-18T07:30:29;35.05;;;8.93;;
60233;SDS011;49514;43.538;-5.708;2022-12-18T07:32:56;39.42;;;9.68;;
60233;SDS011;49514;43.538;-5.708;2022-12-18T07:35:23;40.90;;;10.77;;
60233;SDS011;49514;43.538;-5.708;2022-12-18T07:37:50;31.53;;;8.50;;
60233;SDS011;49514;43.538;-5.708;2022-12-18T07:40:17;32.83;;;7.80;;
60233;SDS011;49514;43.538;-5.708;2022-12-18T07:42:44;33.50;;;9.73;;
60233;SDS011;49514;43.538;-5.708;2022-12-18T07:45:10;32.90;;;8.65;;
60233;SDS011;49514;43.538;-5.708;2022-12-18T07:47:37;33.78;;;8.77;;
60233;SDS011;49514;43.538;-5.708;2022-12-18T07:50:04;30.15;;;7.85;;
60233;SDS011;49514;43.538;-5.708;2022-12-18T07:52:31;30.42;;;8.63;;
60233;SDS011;49514;43.538;-5.708;2022-12-18T07:54:58;26.27;;;7.38;;
60233;SDS011;49514;43.538;-5.708;2022-12-18T07:57:25;24.27;;;6.93;;
60233;SDS011;49514;43.538;-5.708;2022-12-18T07:59:51;20.95;;;5.97;;
60233;SDS011;49514;43.538;-5.708;2022-12-18T08:02:18;21.25;;;5.53;;
60233;SDS011;49514;43.538;-5.708;2022-12-18T08:04:45;17.35;;;4.57;;
60233;SDS011;49514;43.538;-5.708;2022-12-18T08:07:12;13.10;;;3.80;;
60233;SDS011;49514;43.538;-5.708;2022-12-18T08:09:39;8.55;;;3.45;;
60233;SDS011;49514;43.538;-5.708;2022-12-18T08:12:06;11.23;;;3.77;;
60233;SDS011;49514;43.538;-5.708;2022-12-18T08:14:33;9.70;;;4.00;;
60233;SDS011;49514;43.538;-5.708;2022-12-18T08:16:59;13.65;;;4.22;;
60233;SDS011;49514;43.538;-5.708;2022-12-18T16:39:39;5.70;;;2.00;;
60233;SDS011;49514;43.538;-5.708;2022-12-18T16:42:10;3.85;;;2.30;;
60233;SDS011;49514;43.538;-5.708;2022-12-18T16:44:43;3.85;;;1.88;;
60233;SDS011;49514;43.538;-5.708;2022-12-18T16:47:11;4.20;;;1.95;;
60233;SDS011;49514;43.538;-5.708;2022-12-18T16:49:38;4.18;;;2.42;;
60233;SDS011;49514;43.538;-5.708;2022-12-18T16:52:05;3.42;;;1.98;;
60233;SDS011;49514;43.538;-5.708;2022-12-18T16:54:33;3.90;;;1.75;;
60233;SDS011;49514;43.538;-5.708;2022-12-18T16:57:01;5.47;;;2.28;;
60233;SDS011;49514;43.538;-5.708;2022-12-18T16:59:30;6.90;;;2.95;;
60233;SDS011;49514;43.538;-5.708;2022-12-18T17:01:57;5.15;;;2.65;;
60233;SDS011;49514;43.538;-5.708;2022-12-18T17:04:24;5.55;;;2.38;;
60233;SDS011;49514;43.538;-5.708;2022-12-18T17:06:50;2.75;;;1.58;;
60233;SDS011;49514;43.538;-5.708;2022-12-18T17:09:19;1.63;;;1.13;;
60233;SDS011;49514;43.538;-5.708;2022-12-18T17:11:53;1.85;;;1.05;;
60233;SDS011;49514;43.538;-5.708;2022-12-18T17:14:21;1.83;;;1.08;;
60233;SDS011;49514;43.538;-5.708;2022-12-18T17:16:50;2.50;;;1.65;;
60233;SDS011;49514;43.538;-5.708;2022-12-18T17:19:18;1.85;;;1.10;;
60233;SDS011;49514;43.538;-5.708;2022-12-18T17:21:47;2.35;;;1.33;;
60233;SDS011;49514;43.538;-5.708;2022-12-18T17:24:15;1.90;;;1.30;;
60233;SDS011;49514;43.538;-5.708;2022-12-18T17:26:42;2.33;;;1.48;;
60233;SDS011;49514;43.538;-5.708;2022-12-18T17:29:11;6.18;;;2.35;;
60233;SDS011;49514;43.538;-5.708;2022-12-18T17:31:40;2.83;;;1.55;;
60233;SDS011;49514;43.538;-5.708;2022-12-18T17:34:07;2.70;;;1.40;;
60233;SDS011;49514;43.538;-5.708;2022-12-18T17:36:37;6.15;;;1.80;;
60233;SDS011;49514;43.538;-5.708;2022-12-18T17:39:04;6.60;;;4.20;;
60233;SDS011;49514;43.538;-5.708;2022-12-18T17:41:31;3.90;;;2.75;;
60233;SDS011;49514;43.538;-5.708;2022-12-18T17:44:00;5.50;;;2.40;;
60233;SDS011;49514;43.538;-5.708;2022-12-18T17:46:30;9.05;;;3.00;;
60233;SDS011;49514;43.538;-5.708;2022-12-18T17:48:58;5.43;;;2.20;;
60233;SDS011;49514;43.538;-5.708;2022-12-18T17:51:27;11.75;;;3.38;;
60233;SDS011;49514;43.538;-5.708;2022-12-18T17:53:55;7.95;;;3.42;;
60233;SDS011;49514;43.538;-5.708;2022-12-18T17:56:23;8.60;;;4.45;;
60233;SDS011;49514;43.538;-5.708;2022-12-18T17:58:50;5.88;;;2.47;;
60233;SDS011;49514;43.538;-5.708;2022-12-18T18:01:21;4.65;;;2.83;;
60233;SDS011;49514;43.538;-5.708;2022-12-18T18:03:49;6.90;;;3.42;;
60233;SDS011;49514;43.538;-5.708;2022-12-18T18:06:17;8.38;;;3.00;;
60233;SDS011;49514;43.538;-5.708;2022-12-18T18:08:44;8.20;;;2.88;;
60233;SDS011;49514;43.538;-5.708;2022-12-18T18:11:12;6.13;;;2.78;;
60233;SDS011;49514;43.538;-5.708;2022-12-18T19:50:11;1.25;;;0.70;;
60233;SDS011;49514;43.538;-5.708;2022-12-18T19:52:38;1.80;;;0.68;;
60233;SDS011;49514;43.538;-5.708;2022-12-18T19:55:05;2.65;;;0.70;;
60233;SDS011;49514;43.538;-5.708;2022-12-18T19:57:32;1.42;;;0.65;;
60233;SDS011;49514;43.538;-5.708;2022-12-18T20:00:00;3.95;;;0.68;;
60233;SDS011;49514;43.538;-5.708;2022-12-18T20:02:28;2.50;;;0.80;;
60233;SDS011;49514;43.538;-5.708;2022-12-18T20:04:56;1.60;;;0.70;;
60233;SDS011;49514;43.538;-5.708;2022-12-18T20:07:24;1.52;;;0.80;;
60233;SDS011;49514;43.538;-5.708;2022-12-18T20:09:51;1.35;;;0.70;;
60233;SDS011;49514;43.538;-5.708;2022-12-18T20:12:18;1.70;;;0.73;;
60233;SDS011;49514;43.538;-5.708;2022-12-18T20:14:45;1.27;;;0.60;;
60233;SDS011;49514;43.538;-5.708;2022-12-18T20:17:13;2.45;;;0.70;;
60233;SDS011;49514;43.538;-5.708;2022-12-18T20:19:40;1.83;;;0.68;;
60233;SDS011;49514;43.538;-5.708;2022-12-18T20:22:06;1.45;;;0.65;;
60233;SDS011;49514;43.538;-5.708;2022-12-18T20:24:33;2.70;;;0.60;;
60233;SDS011;49514;43.538;-5.708;2022-12-18T20:27:00;2.42;;;0.60;;
60233;SDS011;49514;43.538;-5.708;2022-12-18T20:29:27;1.90;;;0.52;;
60233;SDS011;49514;43.538;-5.708;2022-12-18T20:31:54;2.45;;;0.70;;
60233;SDS011;49514;43.538;-5.708;2022-12-18T20:34:21;2.63;;;0.60;;
60233;SDS011;49514;43.538;-5.708;2022-12-18T20:36:48;1.17;;;0.57;;
60233;SDS011;49514;43.538;-5.708;2022-12-18T20:39:15;0.52;;;0.50;;
60233;SDS011;49514;43.538;-5.708;2022-12-18T20:41:43;1.73;;;0.60;;
60233;SDS011;49514;43.538;-5.708;2022-12-18T20:44:11;1.67;;;0.80;;
60233;SDS011;49514;43.538;-5.708;2022-12-18T20:46:39;0.82;;;0.57;;
60233;SDS011;49514;43.538;-5.708;2022-12-18T20:49:06;4.05;;;0.70;;
60233;SDS011;49514;43.538;-5.708;2022-12-18T20:51:33;2.33;;;0.60;;
60233;SDS011;49514;43.538;-5.708;2022-12-18T20:54:02;0.82;;;0.50;;
60233;SDS011;49514;43.538;-5.708;2022-12-18T20:56:29;1.02;;;0.70;;
60233;SDS011;49514;43.538;-5.708;2022-12-18T20:58:56;2.08;;;0.70;;
60233;SDS011;49514;43.538;-5.708;2022-12-18T21:01:25;0.43;;;0.38;;
60233;SDS011;49514;43.538;-5.708;2022-12-18T21:03:54;0.93;;;0.40;;
60233;SDS011;49514;43.538;-5.708;2022-12-18T21:06:21;1.70;;;0.60;;
60233;SDS011;49514;43.538;-5.708;2022-12-18T21:08:49;3.38;;;0.68;;
60233;SDS011;49514;43.538;-5.708;2022-12-18T21:14:11;2.08;;;0.70;;
60233;SDS011;49514;43.538;-5.708;2022-12-18T21:16:49;1.10;;;0.60;;
60233;SDS011;49514;43.538;-5.708;2022-12-18T21:19:19;1.45;;;0.50;;
60233;SDS011;49514;43.538;-5.708;2022-12-18T21:21:51;1.67;;;0.60;;
60233;SDS011;49514;43.538;-5.708;2022-12-18T21:24:18;4.10;;;0.70;;
60233;SDS011;49514;43.538;-5.708;2022-12-18T21:26:46;3.40;;;0.80;;
60233;SDS011;49514;43.538;-5.708;2022-12-18T21:29:14;1.65;;;0.57;;
60233;SDS011;49514;43.538;-5.708;2022-12-18T21:31:42;1.58;;;0.98;;
60233;SDS011;49514;43.538;-5.708;2022-12-18T21:34:17;1.98;;;0.60;;
60233;SDS011;49514;43.538;-5.708;2022-12-18T21:36:50;0.60;;;0.43;;
60233;SDS011;49514;43.538;-5.708;2022-12-18T21:39:17;0.88;;;0.47;;
60233;SDS011;49514;43.538;-5.708;2022-12-18T21:41:44;2.20;;;0.57;;
60233;SDS011;49514;43.538;-5.708;2022-12-18T21:44:32;1.60;;;0.60;;
60233;SDS011;49514;43.538;-5.708;2022-12-18T21:46:59;0.38;;;0.38;;
60233;SDS011;49514;43.538;-5.708;2022-12-18T21:49:25;3.53;;;0.55;;
60233;SDS011;49514;43.538;-5.708;2022-12-18T21:51:54;1.00;;;0.57;;
60233;SDS011;49514;43.538;-5.708;2022-12-18T21:54:22;0.75;;;0.50;;
60233;SDS011;49514;43.538;-5.708;2022-12-18T21:56:58;1.35;;;0.70;;
60233;SDS011;49514;43.538;-5.708;2022-12-18T21:59:27;5.35;;;1.20;;
60233;SDS011;49514;43.538;-5.708;2022-12-18T22:02:00;3.72;;;0.80;;
60233;SDS011;49514;43.538;-5.708;2022-12-18T22:04:29;1.27;;;0.80;;
60233;SDS011;49514;43.538;-5.708;2022-12-18T22:06:59;1.38;;;0.40;;
60233;SDS011;49514;43.538;-5.708;2022-12-18T22:09:26;1.02;;;0.50;;
60233;SDS011;49514;43.538;-5.708;2022-12-18T22:11:53;6.68;;;0.80;;
60233;SDS011;49514;43.538;-5.708;2022-12-18T22:14:20;1.20;;;0.57;;
60233;SDS011;49514;43.538;-5.708;2022-12-18T22:16:48;1.55;;;0.70;;
60233;SDS011;49514;43.538;-5.708;2022-12-18T22:19:15;2.47;;;0.75;;
60233;SDS011;49514;43.538;-5.708;2022-12-18T22:21:47;1.85;;;0.57;;
60233;SDS011;49514;43.538;-5.708;2022-12-18T22:24:15;2.03;;;0.50;;
60233;SDS011;49514;43.538;-5.708;2022-12-18T22:26:47;0.85;;;0.43;;
60233;SDS011;49514;43.538;-5.708;2022-12-18T22:29:18;0.90;;;0.40;;
60233;SDS011;49514;43.538;-5.708;2022-12-18T22:32:05;2.60;;;0.60;;
60233;SDS011;49514;43.538;-5.708;2022-12-18T22:34:34;3.00;;;0.55;;
60233;SDS011;49514;43.538;-5.708;2022-12-18T22:37:01;1.95;;;0.70;;
60233;SDS011;49514;43.538;-5.708;2022-12-18T22:39:28;1.75;;;0.50;;
60233;SDS011;49514;43.538;-5.708;2022-12-18T22:41:55;1.30;;;0.50;;
60233;SDS011;49514;43.538;-5.708;2022-12-18T22:44:23;1.83;;;0.52;;
60233;SDS011;49514;43.538;-5.708;2022-12-18T22:46:50;0.80;;;0.40;;
60233;SDS011;49514;43.538;-5.708;2022-12-18T22:49:19;0.50;;;0.50;;
60233;SDS011;49514;43.538;-5.708;2022-12-18T22:51:47;1.13;;;0.50;;
60233;SDS011;49514;43.538;-5.708;2022-12-18T22:54:14;0.85;;;0.40;;
60233;SDS011;49514;43.538;-5.708;2022-12-18T22:56:41;0.30;;;0.30;;
60233;SDS011;49514;43.538;-5.708;2022-12-18T22:59:15;3.92;;;0.65;;
60233;SDS011;49514;43.538;-5.708;2022-12-18T23:01:44;0.77;;;0.52;;
60233;SDS011;49514;43.538;-5.708;2022-12-18T23:04:12;1.20;;;0.50;;
60233;SDS011;49514;43.538;-5.708;2022-12-18T23:06:40;1.98;;;0.55;;
60233;SDS011;49514;43.538;-5.708;2022-12-18T23:09:12;1.45;;;0.40;;
60233;SDS011;49514;43.538;-5.708;2022-12-18T23:11:41;1.23;;;0.47;;
60233;SDS011;49514;43.538;-5.708;2022-12-18T23:14:09;1.35;;;0.40;;
60233;SDS011;49514;43.538;-5.708;2022-12-18T23:16:36;0.77;;;0.30;;
60233;SDS011;49514;43.538;-5.708;2022-12-18T23:19:02;2.58;;;0.50;;
60233;SDS011;49514;43.538;-5.708;2022-12-18T23:21:30;0.70;;;0.43;;
60233;SDS011;49514;43.538;-5.708;2022-12-18T23:23:57;0.88;;;0.50;;
60233;SDS011;49514;43.538;-5.708;2022-12-18T23:26:24;3.40;;;0.40;;
60233;SDS011;49514;43.538;-5.708;2022-12-18T23:28:52;1.05;;;0.40;;
60233;SDS011;49514;43.538;-5.708;2022-12-18T23:31:22;1.73;;;0.50;;
60233;SDS011;49514;43.538;-5.708;2022-12-18T23:33:53;1.92;;;0.40;;
60233;SDS011;49514;43.538;-5.708;2022-12-18T23:36:21;2.65;;;0.70;;
60233;SDS011;49514;43.538;-5.708;2022-12-18T23:38:49;1.85;;;0.57;;
60233;SDS011;49514;43.538;-5.708;2022-12-18T23:41:19;0.65;;;0.40;;
60233;SDS011;49514;43.538;-5.708;2022-12-18T23:43:47;0.80;;;0.22;;
60233;SDS011;49514;43.538;-5.708;2022-12-18T23:46:22;1.13;;;0.30;;
60233;SDS011;49514;43.538;-5.708;2022-12-18T23:48:54;1.45;;;0.40;;
60233;SDS011;49514;43.538;-5.708;2022-12-18T23:51:26;1.05;;;0.35;;
60233;SDS011;49514;43.538;-5.708;2022-12-18T23:53:56;1.15;;;0.45;;
60233;SDS011;49514;43.538;-5.708;2022-12-18T23:56:25;5.03;;;1.00;;
60233;SDS011;49514;43.538;-5.708;2022-12-18T23:58:53;11.95;;;1.55;;
